createdAt,value
2019-02-08T00:02:14.233Z,3.60
2019-02-08T00:04:44.801Z,3.60
2019-02-08T00:07:15.541Z,3.50
2019-02-08T00:09:46.061Z,3.50
2019-02-08T00:12:16.544Z,3.50
2019-02-08T00:14:46.953Z,3.50
2019-02-08T00:17:17.307Z,3.50
2019-02-08T00:19:47.737Z,3.50
2019-02-08T00:22:18.157Z,3.50
2019-02-08T00:24:48.506Z,3.50
2019-02-08T00:27:18.879Z,3.50
2019-02-08T00:29:49.253Z,3.50
2019-02-08T00:32:19.717Z,3.50
2019-02-08T00:34:50.159Z,3.40
2019-02-08T00:37:20.989Z,3.40
2019-02-08T00:39:51.376Z,3.40
2019-02-08T00:42:21.769Z,3.40
2019-02-08T00:44:52.135Z,3.40
2019-02-08T00:47:22.505Z,3.40
2019-02-08T00:49:53.253Z,3.40
2019-02-08T00:52:23.638Z,3.50
2019-02-08T00:54:53.995Z,3.50
2019-02-08T00:57:24.352Z,3.70
2019-02-08T00:59:54.700Z,3.70
2019-02-08T01:02:25.165Z,3.70
2019-02-08T01:04:55.901Z,3.80
2019-02-08T01:07:26.273Z,4.00
2019-02-08T01:09:57.291Z,4.10
2019-02-08T01:12:27.709Z,4.20
2019-02-08T01:14:58.061Z,4.20
2019-02-08T01:17:28.423Z,4.20
2019-02-08T01:19:59.066Z,4.30
2019-02-08T01:22:29.745Z,4.30
2019-02-08T01:25:00.245Z,4.20
2019-02-08T01:27:30.606Z,4.10
2019-02-08T01:30:01.003Z,4.20
2019-02-08T01:32:31.491Z,4.30
2019-02-08T01:35:01.839Z,4.30
2019-02-08T01:37:32.214Z,4.20
2019-02-08T01:40:02.594Z,4.20
2019-02-08T01:42:32.978Z,4.20
2019-02-08T01:45:03.359Z,4.20
2019-02-08T01:47:33.721Z,4.30
2019-02-08T01:50:04.681Z,4.40
2019-02-08T01:52:35.053Z,4.40
2019-02-08T01:55:06.582Z,4.50
2019-02-08T01:57:36.929Z,4.50
2019-02-08T02:00:15.200Z,4.40
2019-02-08T02:02:45.574Z,4.30
2019-02-08T02:05:16.953Z,4.40
2019-02-08T02:07:47.294Z,4.30
2019-02-08T02:10:21.936Z,4.20
2019-02-08T02:12:52.283Z,4.40
2019-02-08T02:15:23.046Z,4.40
2019-02-08T02:17:53.390Z,4.50
2019-02-08T02:20:26.422Z,4.40
2019-02-08T02:22:56.821Z,4.40
2019-02-08T02:25:27.197Z,4.20
2019-02-08T02:27:57.549Z,4.10
2019-02-08T02:30:29.972Z,4.00
2019-02-08T02:33:00.410Z,4.00
2019-02-08T02:35:30.755Z,4.00
2019-02-08T02:38:01.101Z,3.90
2019-02-08T02:40:31.470Z,4.00
2019-02-08T02:43:01.877Z,4.00
2019-02-08T02:45:35.478Z,3.90
2019-02-08T02:48:07.575Z,4.00
2019-02-08T02:50:38.065Z,4.00
2019-02-08T02:53:08.508Z,3.90
2019-02-08T02:55:38.970Z,3.80
2019-02-08T02:58:09.423Z,3.90
2019-02-08T03:00:45.058Z,3.90
2019-02-08T03:03:17.059Z,3.80
2019-02-08T03:05:47.445Z,3.90
2019-02-08T03:08:18.570Z,3.90
2019-02-08T03:10:48.901Z,3.80
2019-02-08T03:13:19.253Z,3.70
2019-02-08T03:15:49.697Z,3.50
2019-02-08T03:18:20.029Z,3.60
2019-02-08T03:20:50.369Z,3.60
2019-02-08T03:23:20.713Z,3.70
2019-02-08T03:25:51.045Z,3.60
2019-02-08T03:28:21.417Z,3.60
2019-02-08T03:30:57.024Z,3.70
2019-02-08T03:33:27.385Z,3.80
2019-02-08T03:35:57.832Z,3.80
2019-02-08T03:38:28.220Z,3.70
2019-02-08T03:40:58.573Z,3.80
2019-02-08T03:43:28.969Z,3.90
2019-02-08T03:45:59.317Z,4.00
2019-02-08T03:48:29.684Z,4.00
2019-02-08T03:51:00.023Z,4.10
2019-02-08T03:53:30.364Z,4.20
2019-02-08T03:56:00.729Z,4.20
2019-02-08T03:58:31.103Z,4.10
2019-02-08T04:01:06.129Z,4.20
2019-02-08T04:03:36.486Z,4.30
2019-02-08T04:06:07.053Z,4.30
2019-02-08T04:08:37.481Z,4.20
2019-02-08T04:11:07.914Z,4.20
2019-02-08T04:13:38.265Z,4.20
2019-02-08T04:16:08.604Z,4.30
2019-02-08T04:18:38.961Z,4.20
2019-02-08T04:21:09.314Z,4.40
2019-02-08T04:23:39.671Z,4.60
2019-02-08T04:26:10.024Z,4.30
2019-02-08T04:28:40.658Z,4.30
2019-02-08T04:31:10.996Z,4.30
2019-02-08T04:33:41.346Z,4.30
2019-02-08T04:36:11.708Z,4.20
2019-02-08T04:38:42.130Z,4.20
2019-02-08T04:41:12.493Z,4.20
2019-02-08T04:43:42.858Z,4.10
2019-02-08T04:46:13.212Z,4.10
2019-02-08T04:48:43.964Z,3.90
2019-02-08T04:51:14.346Z,4.00
2019-02-08T04:53:44.697Z,3.90
2019-02-08T04:56:15.088Z,3.80
2019-02-08T04:58:45.420Z,3.80
2019-02-08T05:01:15.794Z,3.90
2019-02-08T05:03:46.192Z,3.90
2019-02-08T05:06:16.571Z,3.90
2019-02-08T05:08:46.907Z,3.80
2019-02-08T05:11:17.258Z,3.60
2019-02-08T05:13:47.622Z,3.60
2019-02-08T05:16:17.969Z,3.70
2019-02-08T05:18:48.317Z,3.70
2019-02-08T05:21:18.670Z,3.70
2019-02-08T05:23:49.028Z,3.60
2019-02-08T05:26:19.401Z,3.60
2019-02-08T05:28:49.723Z,3.70
2019-02-08T05:31:20.162Z,3.70
2019-02-08T05:33:51.672Z,3.70
2019-02-08T05:36:22.055Z,3.90
2019-02-08T05:38:52.431Z,3.90
2019-02-08T05:41:22.792Z,3.70
2019-02-08T05:43:53.127Z,3.60
2019-02-08T05:46:24.893Z,3.60
2019-02-08T05:48:55.269Z,3.50
2019-02-08T05:51:25.632Z,3.30
2019-02-08T05:53:56.006Z,3.30
2019-02-08T05:56:26.357Z,3.60
2019-02-08T05:58:56.755Z,3.50
2019-02-08T06:01:27.104Z,3.50
2019-02-08T06:03:57.481Z,3.30
2019-02-08T06:06:27.814Z,3.40
2019-02-08T06:08:58.186Z,3.30
2019-02-08T06:11:28.551Z,3.50
2019-02-08T06:13:58.912Z,3.50
2019-02-08T06:16:29.339Z,3.30
2019-02-08T06:18:59.727Z,3.20
2019-02-08T06:21:30.090Z,3.30
2019-02-08T06:24:00.449Z,3.30
2019-02-08T06:26:30.806Z,3.20
2019-02-08T06:29:01.162Z,3.30
2019-02-08T06:31:31.528Z,3.30
2019-02-08T06:34:01.883Z,3.30
2019-02-08T06:36:32.238Z,3.30
2019-02-08T06:39:02.721Z,3.20
2019-02-08T06:41:33.082Z,3.30
2019-02-08T06:44:03.450Z,3.20
2019-02-08T06:46:33.809Z,3.20
2019-02-08T06:49:04.968Z,3.20
2019-02-08T06:51:35.314Z,3.10
2019-02-08T06:54:05.776Z,3.10
2019-02-08T06:57:03.906Z,3.10
2019-02-08T06:59:39.044Z,3.10
2019-02-08T07:02:28.350Z,3.20
2019-02-08T07:05:33.359Z,3.10
2019-02-08T07:08:29.065Z,3.00
2019-02-08T07:11:17.828Z,3.10
2019-02-08T07:14:15.277Z,3.10
2019-02-08T07:17:00.345Z,3.10
2019-02-08T07:19:52.185Z,3.20
2019-02-08T07:22:40.046Z,3.40
2019-02-08T07:25:41.389Z,3.20
2019-02-08T07:28:30.675Z,3.30
2019-02-08T07:31:18.713Z,3.40
2019-02-08T07:33:56.262Z,3.50
2019-02-08T07:36:44.582Z,3.40
2019-02-08T07:39:46.525Z,3.50
2019-02-08T07:42:34.538Z,3.60
2019-02-08T07:45:12.573Z,3.50
2019-02-08T07:48:12.250Z,3.60
2019-02-08T07:51:03.304Z,3.60
2019-02-08T07:53:43.640Z,3.70
2019-02-08T07:56:33.447Z,3.90
2019-02-08T07:59:28.756Z,3.90
2019-02-08T08:02:36.958Z,4.10
2019-02-08T08:05:22.941Z,4.30
2019-02-08T08:08:04.130Z,4.60
2019-02-08T08:10:57.109Z,4.80
2019-02-08T08:13:46.413Z,5.00
2019-02-08T08:16:42.078Z,5.40
2019-02-08T08:19:43.557Z,5.60
2019-02-08T08:22:33.550Z,5.70
2019-02-08T08:25:21.898Z,6.00
2019-02-08T08:28:05.299Z,6.10
2019-02-08T08:30:47.892Z,6.00
2019-02-08T08:33:36.079Z,5.80
2019-02-08T08:36:43.154Z,5.40
2019-02-08T08:40:10.205Z,5.50
2019-02-08T08:43:11.667Z,5.40
2019-02-08T08:46:32.229Z,5.40
2019-02-08T08:49:46.939Z,5.60
2019-02-08T08:52:38.673Z,5.50
2019-02-08T08:55:44.310Z,5.50
2019-02-08T08:58:56.031Z,5.60
2019-02-08T09:02:17.426Z,5.50
2019-02-08T09:05:33.123Z,5.60
2019-02-08T09:08:47.271Z,5.60
2019-02-08T09:11:54.277Z,5.90
2019-02-08T09:14:48.277Z,6.40
2019-02-08T09:17:33.733Z,6.30
2019-02-08T09:20:46.781Z,6.10
2019-02-08T09:24:07.454Z,6.30
2019-02-08T09:27:13.942Z,6.50
2019-02-08T09:30:36.653Z,6.60
2019-02-08T09:33:35.422Z,6.40
2019-02-08T09:36:53.496Z,6.30
2019-02-08T09:39:58.945Z,6.20
2019-02-08T09:43:09.238Z,6.50
2019-02-08T09:46:26.801Z,6.60
2019-02-08T09:49:50.157Z,6.60
2019-02-08T09:52:56.224Z,6.50
2019-02-08T09:56:06.233Z,6.90
2019-02-08T09:59:11.104Z,7.00
2019-02-08T10:02:30.990Z,7.10
2019-02-08T10:05:40.833Z,7.20
2019-02-08T10:08:51.340Z,7.20
2019-02-08T10:11:56.221Z,7.50
2019-02-08T10:15:20.309Z,7.50
2019-02-08T10:18:33.793Z,7.80
2019-02-08T10:22:03.691Z,8.20
2019-02-08T10:25:26.286Z,8.30
2019-02-08T10:28:32.376Z,8.50
2019-02-08T10:31:38.437Z,8.50
2019-02-08T10:34:45.798Z,8.50
2019-02-08T10:37:57.174Z,8.50
2019-02-08T10:41:16.568Z,8.80
2019-02-08T10:44:29.505Z,9.20
2019-02-08T10:47:36.763Z,8.90
2019-02-08T10:50:50.975Z,9.20
2019-02-08T10:54:17.825Z,9.00
2019-02-08T10:57:56.681Z,9.00
2019-02-08T11:01:01.194Z,9.80
2019-02-08T11:04:14.973Z,9.50
2019-02-08T11:07:27.550Z,9.50
2019-02-08T11:10:47.995Z,9.70
2019-02-08T11:14:02.403Z,9.70
2019-02-08T11:17:12.010Z,10.40
2019-02-08T11:19:40.731Z,10.60
2019-02-08T11:22:11.097Z,10.10
2019-02-08T11:24:41.482Z,9.60
2019-02-08T11:27:11.846Z,9.60
2019-02-08T11:29:42.186Z,10.10
2019-02-08T11:32:12.676Z,9.80
2019-02-08T11:34:43.037Z,9.40
2019-02-08T11:37:13.585Z,9.80
2019-02-08T11:39:44.071Z,10.60
2019-02-08T11:42:14.518Z,11.20
2019-02-08T11:44:44.852Z,11.70
2019-02-08T11:47:15.215Z,12.10
2019-02-08T11:49:45.608Z,12.10
2019-02-08T11:52:16.000Z,12.30
2019-02-08T11:54:46.467Z,11.70
2019-02-08T11:57:16.848Z,11.20
2019-02-08T11:59:47.197Z,11.20
2019-02-08T12:02:17.586Z,11.20
2019-02-08T12:04:48.013Z,10.90
2019-02-08T12:07:18.379Z,10.60
2019-02-08T12:09:48.765Z,11.00
2019-02-08T12:12:19.165Z,11.00
2019-02-08T12:14:49.532Z,10.90
2019-02-08T12:17:19.912Z,11.40
2019-02-08T12:19:50.274Z,11.30
2019-02-08T12:22:20.653Z,10.50
2019-02-08T12:24:52.503Z,10.50
2019-02-08T12:27:23.013Z,10.50
2019-02-08T12:29:53.401Z,10.50
2019-02-08T12:32:23.790Z,10.40
2019-02-08T12:34:54.257Z,10.30
2019-02-08T12:37:24.633Z,10.30
2019-02-08T12:39:55.046Z,10.30
2019-02-08T12:42:25.425Z,10.40
2019-02-08T12:44:55.807Z,10.30
2019-02-08T12:47:26.179Z,10.00
2019-02-08T12:49:56.532Z,9.80
2019-02-08T12:52:26.981Z,10.10
2019-02-08T12:54:57.419Z,10.20
2019-02-08T12:57:27.874Z,10.60
2019-02-08T12:59:58.272Z,9.90
2019-02-08T13:02:28.713Z,10.20
2019-02-08T13:04:59.154Z,10.70
2019-02-08T13:07:29.529Z,10.80
2019-02-08T13:10:00.469Z,10.30
2019-02-08T13:12:30.847Z,10.30
2019-02-08T13:15:01.294Z,10.20
2019-02-08T13:17:31.844Z,10.20
2019-02-08T13:20:02.353Z,9.80
2019-02-08T13:22:32.709Z,9.70
2019-02-08T13:25:03.119Z,9.80
2019-02-08T13:27:33.489Z,10.10
2019-02-08T13:30:05.142Z,10.20
2019-02-08T13:32:35.587Z,10.40
2019-02-08T13:35:06.600Z,10.60
2019-02-08T13:37:37.088Z,11.00
2019-02-08T13:40:09.199Z,11.20
2019-02-08T13:42:39.595Z,11.30
2019-02-08T13:45:10.919Z,11.40
2019-02-08T13:47:41.286Z,11.60
2019-02-08T13:50:17.910Z,11.40
2019-02-08T13:52:48.265Z,11.40
2019-02-08T13:55:19.662Z,11.20
2019-02-08T13:57:50.040Z,10.80
2019-02-08T14:00:25.919Z,11.10
2019-02-08T14:02:56.295Z,11.30
2019-02-08T14:05:26.678Z,11.50
2019-02-08T14:07:57.115Z,11.70
2019-02-08T14:10:27.466Z,11.50
2019-02-08T14:12:57.844Z,11.20
2019-02-08T14:15:28.438Z,11.50
2019-02-08T14:17:58.901Z,11.30
2019-02-08T14:20:30.089Z,11.00
2019-02-08T14:23:00.557Z,11.10
2019-02-08T14:25:30.914Z,11.00
2019-02-08T14:28:01.304Z,10.90
2019-02-08T14:30:34.048Z,11.20
2019-02-08T14:33:04.466Z,11.40
2019-02-08T14:35:35.108Z,11.30
2019-02-08T14:38:09.751Z,10.90
2019-02-08T14:40:40.110Z,10.50
2019-02-08T14:43:10.525Z,10.40
2019-02-08T14:45:40.882Z,10.30
2019-02-08T14:48:11.258Z,10.10
2019-02-08T14:50:41.653Z,9.90
2019-02-08T14:53:12.013Z,9.90
2019-02-08T14:55:42.394Z,9.90
2019-02-08T14:58:12.992Z,9.90
2019-02-08T15:00:43.354Z,9.80
2019-02-08T15:03:13.752Z,9.60
2019-02-08T15:05:44.150Z,9.40
2019-02-08T15:08:15.220Z,9.20
2019-02-08T15:10:47.362Z,9.20
2019-02-08T15:13:17.755Z,9.20
2019-02-08T15:15:48.129Z,9.30
2019-02-08T15:18:18.803Z,9.40
2019-02-08T15:20:49.382Z,9.50
2019-02-08T15:23:19.753Z,9.30
2019-02-08T15:25:50.130Z,9.30
2019-02-08T15:28:20.486Z,9.10
2019-02-08T15:30:50.871Z,8.90
2019-02-08T15:33:21.330Z,8.70
2019-02-08T15:35:51.701Z,8.70
2019-02-08T15:38:22.072Z,8.70
2019-02-08T15:40:54.860Z,8.80
2019-02-08T15:43:25.992Z,8.90
2019-02-08T15:46:01.836Z,8.70
2019-02-08T15:48:32.264Z,8.60
2019-02-08T15:51:02.733Z,8.50
2019-02-08T15:53:33.083Z,8.50
2019-02-08T15:56:15.158Z,8.50
2019-02-08T15:58:45.550Z,8.50
2019-02-08T16:01:16.137Z,8.40
2019-02-08T16:03:46.573Z,8.40
2019-02-08T16:06:17.050Z,8.20
2019-02-08T16:08:48.400Z,8.10
2019-02-08T16:11:18.791Z,8.20
2019-02-08T16:13:49.177Z,8.30
2019-02-08T16:16:19.718Z,8.10
2019-02-08T16:18:50.057Z,8.30
2019-02-08T16:21:20.534Z,8.30
2019-02-08T16:23:50.982Z,8.00
2019-02-08T16:26:21.371Z,7.90
2019-02-08T16:28:51.745Z,7.90
2019-02-08T16:31:22.124Z,8.00
2019-02-08T16:33:54.266Z,7.80
2019-02-08T16:36:24.606Z,8.00
2019-02-08T16:38:55.017Z,8.10
2019-02-08T16:41:25.382Z,7.90
2019-02-08T16:43:55.731Z,7.80
2019-02-08T16:46:26.115Z,7.60
2019-02-08T16:48:56.472Z,7.50
2019-02-08T16:51:26.864Z,7.50
2019-02-08T16:53:57.218Z,7.50
2019-02-08T16:56:27.579Z,7.40
2019-02-08T16:58:57.977Z,7.30
2019-02-08T17:01:28.322Z,7.30
2019-02-08T17:03:58.698Z,7.30
2019-02-08T17:06:29.367Z,7.30
2019-02-08T17:08:59.728Z,7.20
2019-02-08T17:11:30.086Z,7.20
2019-02-08T17:14:00.499Z,7.20
2019-02-08T17:16:30.847Z,7.10
2019-02-08T17:19:01.235Z,7.00
2019-02-08T17:21:31.581Z,7.10
2019-02-08T17:24:01.952Z,7.00
2019-02-08T17:26:32.329Z,6.90
2019-02-08T17:29:02.722Z,6.90
2019-02-08T17:31:33.073Z,6.90
2019-02-08T17:34:03.457Z,6.90
2019-02-08T17:36:33.800Z,6.90
2019-02-08T17:39:05.957Z,6.80
2019-02-08T17:41:36.442Z,6.80
2019-02-08T17:44:06.935Z,6.80
2019-02-08T17:46:37.286Z,6.80
2019-02-08T17:49:07.659Z,6.90
2019-02-08T17:51:38.054Z,6.70
2019-02-08T17:54:08.466Z,6.70
2019-02-08T17:56:38.844Z,6.60
2019-02-08T17:59:09.232Z,6.80
2019-02-08T18:01:39.604Z,6.80
2019-02-08T18:04:09.961Z,6.90
2019-02-08T18:06:40.342Z,6.90
2019-02-08T18:09:11.060Z,7.00
2019-02-08T18:11:41.462Z,6.90
2019-02-08T18:14:11.925Z,6.90
2019-02-08T18:16:42.314Z,6.80
2019-02-08T18:19:12.723Z,6.70
2019-02-08T18:21:43.122Z,6.70
2019-02-08T18:24:13.473Z,6.60
2019-02-08T18:26:43.871Z,6.70
2019-02-08T18:29:14.229Z,6.90
2019-02-08T18:31:45.582Z,6.80
2019-02-08T18:34:15.935Z,6.70
2019-02-08T18:36:46.294Z,6.70
2019-02-08T18:39:16.662Z,6.80
2019-02-08T18:41:47.039Z,6.80
2019-02-08T18:44:17.413Z,6.50
2019-02-08T18:46:47.807Z,6.60
2019-02-08T18:49:18.153Z,6.70
2019-02-08T18:51:48.541Z,6.50
2019-02-08T18:54:18.887Z,6.40
2019-02-08T18:56:49.282Z,6.30
2019-02-08T18:59:19.650Z,6.30
2019-02-08T19:01:50.090Z,6.20
2019-02-08T19:04:20.483Z,6.30
2019-02-08T19:06:50.917Z,6.20
2019-02-08T19:09:21.288Z,6.30
2019-02-08T19:11:51.718Z,6.20
2019-02-08T19:14:22.080Z,6.20
2019-02-08T19:16:52.466Z,6.20
2019-02-08T19:19:22.837Z,6.20
2019-02-08T19:21:53.230Z,6.40
2019-02-08T19:24:23.587Z,6.40
2019-02-08T19:26:53.977Z,6.40
2019-02-08T19:29:24.321Z,6.50
2019-02-08T19:31:54.865Z,6.30
2019-02-08T19:34:25.227Z,6.30
2019-02-08T19:36:55.582Z,6.20
2019-02-08T19:39:25.995Z,6.00
2019-02-08T19:41:56.446Z,6.20
2019-02-08T19:44:26.874Z,6.30
2019-02-08T19:46:57.251Z,6.30
2019-02-08T19:49:27.624Z,6.10
2019-02-08T19:51:58.000Z,6.00
2019-02-08T19:54:28.349Z,6.00
2019-02-08T19:56:58.725Z,6.20
2019-02-08T19:59:29.094Z,6.20
2019-02-08T20:02:00.577Z,6.20
2019-02-08T20:04:30.985Z,6.10
2019-02-08T20:07:01.371Z,6.30
2019-02-08T20:09:31.745Z,6.30
2019-02-08T20:12:02.149Z,6.10
2019-02-08T20:14:32.518Z,6.00
2019-02-08T20:17:02.902Z,6.20
2019-02-08T20:19:33.274Z,6.20
2019-02-08T20:22:03.745Z,6.00
2019-02-08T20:24:34.183Z,6.00
2019-02-08T20:27:04.634Z,6.10
2019-02-08T20:29:35.013Z,6.10
2019-02-08T20:32:05.980Z,6.20
2019-02-08T20:34:36.367Z,6.10
2019-02-08T20:37:07.158Z,6.10
2019-02-08T20:39:37.606Z,6.10
2019-02-08T20:42:08.201Z,6.20
2019-02-08T20:44:38.573Z,6.20
2019-02-08T20:47:08.961Z,6.20
2019-02-08T20:49:39.345Z,6.20
2019-02-08T20:52:09.854Z,6.20
2019-02-08T20:54:40.209Z,6.30
2019-02-08T20:57:10.609Z,6.10
2019-02-08T20:59:41.006Z,6.10
2019-02-08T21:02:11.386Z,6.30
2019-02-08T21:04:41.745Z,6.30
2019-02-08T21:07:12.157Z,6.30
2019-02-08T21:09:42.508Z,6.00
2019-02-08T21:12:12.889Z,6.10
2019-02-08T21:14:43.243Z,6.00
2019-02-08T21:17:13.613Z,5.90
2019-02-08T21:19:43.994Z,5.90
2019-02-08T21:22:14.392Z,6.00
2019-02-08T21:24:44.757Z,5.90
2019-02-08T21:27:15.185Z,5.80
2019-02-08T21:29:45.618Z,5.80
2019-02-08T21:32:17.941Z,5.80
2019-02-08T21:34:48.327Z,5.90
2019-02-08T21:37:18.714Z,5.70
2019-02-08T21:39:49.062Z,5.60
2019-02-08T21:42:19.444Z,5.70
2019-02-08T21:44:49.789Z,5.60
2019-02-08T21:47:20.155Z,5.50
2019-02-08T21:49:50.510Z,5.60
2019-02-08T21:52:21.443Z,5.50
2019-02-08T21:54:51.854Z,5.40
2019-02-08T21:57:22.229Z,5.50
2019-02-08T21:59:52.594Z,5.50
2019-02-08T22:02:22.971Z,5.40
2019-02-08T22:04:53.321Z,5.30
2019-02-08T22:07:23.698Z,5.30
2019-02-08T22:09:54.073Z,5.30
2019-02-08T22:12:24.425Z,5.20
2019-02-08T22:14:54.813Z,5.20
2019-02-08T22:17:25.184Z,5.30
2019-02-08T22:19:55.545Z,5.20
2019-02-08T22:22:25.914Z,5.20
2019-02-08T22:24:56.307Z,5.10
2019-02-08T22:27:26.669Z,5.00
2019-02-08T22:29:57.925Z,4.90
2019-02-08T22:32:28.272Z,4.90
2019-02-08T22:34:58.650Z,4.90
2019-02-08T22:37:29.032Z,5.00
2019-02-08T22:39:59.383Z,5.00
2019-02-08T22:42:29.741Z,5.20
2019-02-08T22:45:08.450Z,5.20
2019-02-08T22:47:35.203Z,5.10
2019-02-08T22:50:07.194Z,5.20
2019-02-08T22:52:37.610Z,5.20
2019-02-08T22:55:10.390Z,5.20
2019-02-08T22:57:40.770Z,5.10
2019-02-08T23:01:04.289Z,5.10
2019-02-08T23:03:38.430Z,5.00
2019-02-08T23:06:09.094Z,5.10
2019-02-08T23:08:39.441Z,5.00
2019-02-08T23:11:09.822Z,5.00
2019-02-08T23:13:40.137Z,4.90
2019-02-08T23:16:10.513Z,5.00
2019-02-08T23:18:40.886Z,5.00
2019-02-08T23:21:11.647Z,4.90
2019-02-08T23:23:41.999Z,4.80
2019-02-08T23:26:12.373Z,4.60
2019-02-08T23:28:42.722Z,4.60
2019-02-08T23:31:13.541Z,4.60
2019-02-08T23:33:43.904Z,4.60
2019-02-08T23:36:14.302Z,4.50
2019-02-08T23:38:44.874Z,4.50
2019-02-08T23:41:15.367Z,4.50
2019-02-08T23:43:45.716Z,4.50
2019-02-08T23:46:16.070Z,4.40
2019-02-08T23:48:46.424Z,4.40
2019-02-08T23:51:16.781Z,4.50
2019-02-08T23:53:47.322Z,4.40
2019-02-08T23:56:17.666Z,4.50
2019-02-08T23:58:48.046Z,4.60
